Time;durP1;ratioP1;P1;durP2;ratioP2;P2;SDS_P1;SDS_P2;PMS_P1;PMS_P2;Temp;Humidity;BMP_temperature;BMP_pressure;BME280_temperature;BME280_humidity;BME280_pressure;Samples;Min_cycle;Max_cycle;Signal;HPM_P1;HPM_P2
2022/08/27 00:00:02;;;;;;;7.65;6.55;;;27.30;1.00;;;;;;5033404;28;20071;-59
2022/08/27 00:02:28;;;;;;;6.70;6.05;;;27.30;1.00;;;;;;5031458;28;20500;-59
2022/08/27 00:04:53;;;;;;;8.07;6.53;;;27.30;1.00;;;;;;5018882;28;20097;-59
2022/08/27 00:07:22;;;;;;;10.15;6.75;;;27.30;1.00;;;;;;5031972;28;20029;-59
2022/08/27 00:09:47;;;;;;;7.18;6.38;;;27.20;1.00;;;;;;5030985;28;20521;-59
2022/08/27 00:12:13;;;;;;;6.50;5.90;;;27.20;1.00;;;;;;5033523;28;20057;-59
2022/08/27 00:14:38;;;;;;;7.78;5.88;;;27.20;1.00;;;;;;5030985;28;20072;-59
2022/08/27 00:17:06;;;;;;;9.82;6.03;;;27.10;1.00;;;;;;5032591;28;20395;-59
2022/08/27 00:19:35;;;;;;;6.70;6.13;;;27.10;1.00;;;;;;5034985;28;20029;-59
2022/08/27 00:22:02;;;;;;;10.70;6.00;;;27.00;1.00;;;;;;5032670;28;20120;-59
2022/08/27 00:24:27;;;;;;;11.85;6.28;;;27.10;1.00;;;;;;5031587;28;20037;-59
2022/08/27 00:26:53;;;;;;;8.48;5.60;;;27.10;1.00;;;;;;5032692;28;20497;-59
2022/08/27 00:29:25;;;;;;;6.13;5.53;;;27.10;1.00;;;;;;5033656;28;20052;-59
2022/08/27 00:31:52;;;;;;;9.55;5.45;;;27.10;1.00;;;;;;5018629;28;20060;-58
2022/08/27 00:34:19;;;;;;;6.55;5.95;;;27.00;1.00;;;;;;5029941;28;20036;-58
2022/08/27 00:36:44;;;;;;;7.72;5.93;;;27.00;1.00;;;;;;5031824;28;20030;-58
2022/08/27 00:39:11;;;;;;;10.60;6.00;;;27.10;1.00;;;;;;5031512;28;20351;-59
2022/08/27 00:41:38;;;;;;;6.38;5.78;;;27.10;1.00;;;;;;5030995;28;20028;-59
2022/08/27 00:44:05;;;;;;;5.60;5.10;;;27.10;1.00;;;;;;5036696;28;20092;-59
2022/08/27 00:47:00;;;;;;;11.43;5.90;;;27.10;1.00;;;;;;5032118;28;20506;-59
2022/08/27 00:49:33;;;;;;;6.25;5.65;;;27.00;1.00;;;;;;5028147;28;20100;-59
2022/08/27 00:52:06;;;;;;;5.87;4.80;;;26.90;1.00;;;;;;5030389;28;20036;-58
2022/08/27 00:54:33;;;;;;;6.20;4.68;;;27.00;1.00;;;;;;5031083;28;20075;-59
2022/08/27 00:56:59;;;;;;;6.15;4.72;;;27.00;1.00;;;;;;5031899;28;20025;-58
2022/08/27 00:59:31;;;;;;;5.45;4.90;;;27.00;1.00;;;;;;5031260;28;20021;-59
2022/08/27 01:04:45;;;;;;;5.50;4.75;;;27.10;1.00;;;;;;5031087;28;20060;-59
2022/08/27 01:07:12;;;;;;;6.03;5.00;;;27.00;1.00;;;;;;5026846;28;20388;-59
2022/08/27 01:09:42;;;;;;;6.50;4.88;;;27.00;1.00;;;;;;5032725;28;20036;-59
2022/08/27 01:12:08;;;;;;;5.07;4.57;;;27.00;1.00;;;;;;5032030;28;20026;-59
2022/08/27 01:14:34;;;;;;;5.13;4.68;;;27.00;1.00;;;;;;5030748;28;20025;-59
2022/08/27 01:17:02;;;;;;;4.55;3.95;;;27.00;1.00;;;;;;5032209;28;20131;-59
2022/08/27 01:23:10;;;;;;;7.57;4.60;;;27.00;1.00;;;;;;5020081;28;20036;-59
2022/08/27 01:25:36;;;;;;;7.00;5.07;;;27.00;1.00;;;;;;5034296;28;20079;-59
2022/08/27 01:28:04;;;;;;;5.38;4.78;;;27.00;1.00;;;;;;5033586;28;20034;-59
2022/08/27 01:30:30;;;;;;;4.88;4.47;;;27.10;1.00;;;;;;5030923;28;20026;-59
2022/08/27 01:33:28;;;;;;;7.68;4.47;;;27.10;1.00;;;;;;5031735;28;20049;-59
2022/08/27 01:35:54;;;;;;;4.35;3.80;;;27.00;1.00;;;;;;5015925;28;20103;-58
2022/08/27 01:38:22;;;;;;;4.75;3.92;;;27.00;1.00;;;;;;5031681;28;20025;-57
2022/08/27 01:40:47;;;;;;;5.00;3.90;;;27.00;1.00;;;;;;5030742;28;20033;-58
2022/08/27 01:43:13;;;;;;;4.13;3.78;;;27.00;1.00;;;;;;5031604;28;20568;-58
2022/08/27 01:45:43;;;;;;;4.18;3.72;;;27.00;1.00;;;;;;5036368;28;20452;-58
2022/08/27 01:48:09;;;;;;;4.80;3.75;;;27.00;1.00;;;;;;5030728;28;20099;-58
2022/08/27 01:50:38;;;;;;;3.55;3.00;;;27.00;1.00;;;;;;5032795;28;20496;-58
2022/08/27 01:53:10;;;;;;;3.80;3.28;;;27.00;1.00;;;;;;5030730;28;20025;-59
2022/08/27 01:55:37;;;;;;;3.40;3.10;;;27.00;1.00;;;;;;5030566;28;20435;-59
2022/08/27 01:58:03;;;;;;;3.00;2.75;;;27.00;1.00;;;;;;5031601;28;20079;-59
2022/08/27 02:00:33;;;;;;;3.95;2.92;;;27.00;1.00;;;;;;5028735;28;20037;-59
2022/08/27 02:02:59;;;;;;;2.63;2.38;;;26.90;1.00;;;;;;5030517;28;20025;-59
2022/08/27 02:08:47;;;;;;;3.20;3.00;;;27.00;1.00;;;;;;5022165;28;20083;-59
2022/08/27 02:11:12;;;;;;;3.38;3.08;;;26.90;1.00;;;;;;5029763;28;20422;-59
2022/08/27 02:13:38;;;;;;;2.90;2.70;;;26.90;1.00;;;;;;5031383;28;20037;-60
2022/08/27 02:16:04;;;;;;;3.65;2.95;;;26.90;1.00;;;;;;5043050;28;20032;-58
2022/08/27 02:18:29;;;;;;;3.10;2.75;;;26.90;1.00;;;;;;5032599;28;20025;-59
2022/08/27 02:20:55;;;;;;;5.57;3.03;;;26.90;1.00;;;;;;5031728;28;20095;-59
2022/08/27 02:23:21;;;;;;;5.35;2.75;;;26.90;1.00;;;;;;5034772;28;20347;-58
2022/08/27 02:25:46;;;;;;;2.88;2.67;;;26.90;1.00;;;;;;5034047;28;20057;-59
2022/08/27 02:28:13;;;;;;;4.43;3.20;;;26.90;1.00;;;;;;5034803;28;20433;-59
2022/08/27 02:30:39;;;;;;;4.97;3.33;;;26.90;1.00;;;;;;5035585;28;20029;-58
2022/08/27 02:33:05;;;;;;;6.65;3.15;;;26.90;1.00;;;;;;5034636;28;20145;-59
2022/08/27 02:35:37;;;;;;;3.72;3.20;;;26.90;1.00;;;;;;5030058;28;20191;-59
2022/08/27 02:38:03;;;;;;;5.82;3.50;;;26.90;1.00;;;;;;5026540;28;20075;-60
2022/08/27 02:40:37;;;;;;;3.88;3.20;;;26.80;1.00;;;;;;5036792;28;20018;-59
2022/08/27 02:43:03;;;;;;;5.60;3.58;;;26.80;1.00;;;;;;5034666;28;20036;-59
2022/08/27 02:45:29;;;;;;;6.25;3.38;;;26.80;1.00;;;;;;5033701;28;20030;-59
2022/08/27 02:47:55;;;;;;;3.83;3.22;;;26.80;1.00;;;;;;5039470;28;20086;-59
2022/08/27 02:50:20;;;;;;;5.28;3.40;;;26.80;1.00;;;;;;5042747;28;20025;-59
2022/08/27 02:52:46;;;;;;;3.50;3.20;;;26.80;1.00;;;;;;5032451;28;20079;-59
2022/08/27 02:55:13;;;;;;;4.95;3.75;;;26.80;1.00;;;;;;5033459;28;20079;-59
2022/08/27 02:57:39;;;;;;;4.63;4.22;;;26.80;1.00;;;;;;5034135;28;20022;-59
2022/08/27 03:00:10;;;;;;;4.88;4.00;;;26.80;1.00;;;;;;5036195;28;20025;-59
2022/08/27 03:02:37;;;;;;;5.05;4.32;;;26.80;1.00;;;;;;5035911;28;20048;-59
2022/08/27 03:05:04;;;;;;;5.57;4.45;;;26.70;1.00;;;;;;5035461;28;20496;-58
2022/08/27 03:07:29;;;;;;;4.63;4.20;;;26.80;1.00;;;;;;5040958;28;20037;-58
2022/08/27 03:09:55;;;;;;;4.80;4.10;;;26.80;1.00;;;;;;5034153;28;20026;-57
2022/08/27 03:12:21;;;;;;;7.05;4.80;;;26.90;1.00;;;;;;5043426;28;20026;-57
2022/08/27 03:14:46;;;;;;;5.43;4.57;;;26.70;1.00;;;;;;5031988;28;20024;-55
2022/08/27 03:19:56;;;;;;;;;;;26.80;1.00;;;;;;5034553;28;20041;-58
2022/08/27 03:22:34;;;;;;;4.82;4.20;;;26.80;1.00;;;;;;5044223;28;19928;-58
2022/08/27 03:25:01;;;;;;;4.95;4.30;;;26.80;1.00;;;;;;5032747;28;20037;-57
2022/08/27 03:27:27;;;;;;;4.90;4.20;;;26.70;1.00;;;;;;5033212;28;20029;-57
2022/08/27 03:29:53;;;;;;;4.90;4.50;;;26.80;1.00;;;;;;5032848;28;20391;-58
2022/08/27 03:32:18;;;;;;;6.85;4.70;;;26.80;1.00;;;;;;5032370;28;20045;-58
2022/08/27 03:34:44;;;;;;;6.57;4.65;;;26.80;1.00;;;;;;5033446;28;20026;-57
2022/08/27 03:37:09;;;;;;;4.28;3.97;;;26.70;1.00;;;;;;5031772;28;20029;-59
2022/08/27 03:39:35;;;;;;;6.97;4.43;;;26.80;1.00;;;;;;5033746;28;20537;-59
2022/08/27 03:42:01;;;;;;;5.95;5.47;;;26.80;1.00;;;;;;5032333;28;20034;-59
2022/08/27 03:44:26;;;;;;;7.93;7.22;;;26.80;1.00;;;;;;5033225;28;20026;-59
2022/08/27 03:46:52;;;;;;;9.50;7.50;;;26.70;1.00;;;;;;5032331;28;20493;-59
2022/08/27 03:49:20;;;;;;;10.48;9.52;;;26.70;1.00;;;;;;5033210;28;20079;-59
2022/08/27 03:51:47;;;;;;;12.43;9.95;;;26.70;1.00;;;;;;5033436;28;20497;-58
2022/08/27 03:54:13;;;;;;;12.20;10.43;;;26.60;1.00;;;;;;5029495;28;20035;-58
2022/08/27 03:56:40;;;;;;;12.30;11.15;;;26.50;1.00;;;;;;5032493;28;20017;-59
2022/08/27 03:59:07;;;;;;;11.38;10.13;;;26.50;1.00;;;;;;5032740;28;20026;-59
2022/08/27 04:01:34;;;;;;;12.20;11.13;;;26.50;1.00;;;;;;5044664;28;20100;-58
2022/08/27 04:04:00;;;;;;;13.75;11.20;;;26.30;1.00;;;;;;5032863;28;20514;-58
2022/08/27 04:06:27;;;;;;;12.90;10.70;;;26.30;1.00;;;;;;5031980;28;20021;-58
2022/08/27 04:08:52;;;;;;;11.73;10.38;;;26.30;1.00;;;;;;5032888;28;20064;-59
2022/08/27 04:11:18;;;;;;;11.65;10.45;;;26.30;1.00;;;;;;5032920;28;20482;-59
2022/08/27 04:13:43;;;;;;;14.75;10.75;;;26.30;1.00;;;;;;5030895;28;20067;-59
2022/08/27 04:16:15;;;;;;;12.27;10.93;;;26.30;1.00;;;;;;5031972;28;20041;-57
2022/08/27 04:18:41;;;;;;;13.57;9.63;;;26.30;1.00;;;;;;5019861;28;20092;-58
2022/08/27 04:27:51;;;;;;;11.35;10.25;;;26.20;1.00;;;;;;5022939;28;20040;-59
2022/08/27 04:30:18;;;;;;;11.57;9.55;;;26.20;1.00;;;;;;5026965;28;20103;-59
2022/08/27 04:32:43;;;;;;;11.75;10.07;;;26.10;1.00;;;;;;5032270;28;20124;-58
2022/08/27 04:35:10;;;;;;;11.48;10.38;;;26.10;1.00;;;;;;5031986;28;20113;-58
2022/08/27 04:37:37;;;;;;;11.43;10.40;;;26.10;1.00;;;;;;5032345;28;20155;-58
2022/08/27 04:40:04;;;;;;;10.98;9.90;;;26.10;1.00;;;;;;5044785;28;20059;-59
2022/08/27 04:42:30;;;;;;;11.50;9.45;;;26.10;1.00;;;;;;5032324;28;20105;-58
2022/08/27 04:44:55;;;;;;;10.88;9.77;;;26.10;1.00;;;;;;5030998;28;20078;-59
2022/08/27 04:47:26;;;;;;;11.25;10.20;;;26.00;1.00;;;;;;5032219;28;20508;-59
2022/08/27 04:49:52;;;;;;;11.65;10.63;;;26.00;1.00;;;;;;5031359;28;20037;-58
2022/08/27 04:52:17;;;;;;;12.20;11.02;;;26.00;1.00;;;;;;5032178;28;20162;-58
2022/08/27 04:54:43;;;;;;;11.75;10.55;;;26.00;1.00;;;;;;5031169;28;20021;-58
2022/08/27 04:57:09;;;;;;;14.40;11.00;;;26.00;1.00;;;;;;5031026;28;20432;-58
2022/08/27 04:59:35;;;;;;;11.27;10.27;;;26.00;1.00;;;;;;5032836;28;20072;-58
2022/08/27 05:02:03;;;;;;;13.23;11.82;;;26.00;1.00;;;;;;5032069;28;20028;-59
2022/08/27 05:04:29;;;;;;;15.35;11.40;;;26.00;1.00;;;;;;5030955;28;20037;-58
2022/08/27 05:06:55;;;;;;;11.77;10.55;;;26.00;1.00;;;;;;5032096;28;20025;-58
2022/08/27 05:09:21;;;;;;;11.43;10.23;;;26.00;1.00;;;;;;5031174;28;20029;-59
2022/08/27 05:11:46;;;;;;;11.63;9.95;;;25.90;1.00;;;;;;5031806;28;20076;-59
2022/08/27 05:14:14;;;;;;;10.80;9.70;;;25.90;1.00;;;;;;5034877;28;20479;-59
2022/08/27 05:16:39;;;;;;;10.98;9.60;;;25.90;1.00;;;;;;5030909;28;20021;-59
2022/08/27 05:19:08;;;;;;;12.38;9.80;;;25.80;1.00;;;;;;5031162;28;20079;-58
2022/08/27 05:21:37;;;;;;;12.32;10.50;;;25.90;1.00;;;;;;5031671;28;20010;-58
2022/08/27 05:24:05;;;;;;;10.10;9.02;;;25.90;1.00;;;;;;5030679;28;20065;-59
2022/08/27 05:26:34;;;;;;;12.55;9.68;;;25.90;1.00;;;;;;5031762;28;20127;-59
2022/08/27 05:32:23;;;;;;;11.43;10.32;;;25.90;1.00;;;;;;5011715;28;20417;-59
2022/08/27 05:34:58;;;;;;;10.40;9.40;;;25.80;1.00;;;;;;5030712;28;20075;-59
2022/08/27 05:37:23;;;;;;;11.73;10.05;;;25.80;1.00;;;;;;5031662;28;20036;-59
2022/08/27 05:39:49;;;;;;;10.02;9.13;;;25.70;1.00;;;;;;5029820;28;20029;-58
2022/08/27 05:42:15;;;;;;;15.63;9.93;;;25.60;1.00;;;;;;5031558;28;20045;-59
2022/08/27 05:44:40;;;;;;;11.75;10.07;;;25.60;1.00;;;;;;5038174;28;20049;-58
2022/08/27 05:47:06;;;;;;;10.52;9.52;;;25.60;1.00;;;;;;5032366;28;20474;-58
2022/08/27 05:49:32;;;;;;;10.70;9.75;;;25.60;1.00;;;;;;5029427;28;20556;-58
2022/08/27 05:51:58;;;;;;;13.68;9.35;;;25.70;1.00;;;;;;5030200;28;20021;-58
2022/08/27 05:54:29;;;;;;;12.45;9.50;;;25.70;1.00;;;;;;5035679;28;20056;-58
2022/08/27 05:56:55;;;;;;;10.73;7.90;;;25.60;1.00;;;;;;5038292;28;20462;-58
2022/08/27 06:02:05;;;;;;;8.52;6.95;;;25.70;1.00;;;;;;5035605;28;20123;-57
2022/08/27 06:04:31;;;;;;;9.18;7.15;;;25.60;1.00;;;;;;5032222;28;20037;-57
2022/08/27 06:06:56;;;;;;;9.43;7.03;;;25.60;1.00;;;;;;5035176;28;20507;-57
2022/08/27 06:09:34;;;;;;;7.78;6.75;;;25.70;1.00;;;;;;5034240;28;20026;-57
2022/08/27 06:12:03;;;;;;;8.02;7.25;;;25.70;1.00;;;;;;5033698;28;20029;-57
2022/08/27 06:14:29;;;;;;;8.13;7.45;;;25.70;1.00;;;;;;5037048;28;20032;-58
2022/08/27 06:16:55;;;;;;;7.93;7.13;;;25.70;1.00;;;;;;5034931;28;20022;-58
2022/08/27 06:19:21;;;;;;;9.55;7.22;;;25.70;1.00;;;;;;5034339;28;20064;-57
2022/08/27 06:21:48;;;;;;;11.55;6.85;;;25.80;1.00;;;;;;5034848;28;20025;-57
2022/08/27 06:24:14;;;;;;;7.45;6.70;;;25.90;1.00;;;;;;5036666;28;20071;-57
2022/08/27 06:26:41;;;;;;;7.60;6.80;;;25.90;1.00;;;;;;5035829;28;20049;-57
2022/08/27 06:29:09;;;;;;;10.07;7.10;;;26.00;1.00;;;;;;5037322;28;20644;-57
2022/08/27 06:31:36;;;;;;;8.10;7.05;;;25.90;1.00;;;;;;5037200;28;20067;-57
2022/08/27 06:34:03;;;;;;;9.48;8.23;;;25.90;1.00;;;;;;5033988;28;20034;-57
2022/08/27 06:36:29;;;;;;;7.95;7.03;;;25.90;1.00;;;;;;5034549;28;20444;-58
2022/08/27 06:38:56;;;;;;;8.55;7.70;;;25.90;1.00;;;;;;5029817;28;20108;-57
2022/08/27 06:41:25;;;;;;;7.60;6.90;;;25.90;1.00;;;;;;5033956;28;20075;-58
2022/08/27 06:43:52;;;;;;;7.82;6.80;;;26.00;1.00;;;;;;5041224;28;20110;-58
2022/08/27 06:46:20;;;;;;;8.48;7.63;;;26.00;1.00;;;;;;5034413;28;20042;-58
2022/08/27 06:48:47;;;;;;;7.63;7.03;;;26.00;1.00;;;;;;5041991;28;20029;-58
2022/08/27 06:51:18;;;;;;;13.13;6.93;;;26.00;1.00;;;;;;5034336;28;20010;-59
2022/08/27 06:53:46;;;;;;;8.27;6.25;;;26.00;1.00;;;;;;5032299;28;20021;-58
2022/08/27 06:56:13;;;;;;;7.43;6.60;;;26.10;1.00;;;;;;5034075;28;20068;-59
2022/08/27 06:58:39;;;;;;;9.43;6.63;;;26.00;1.00;;;;;;5033629;28;20040;-59
2022/08/27 07:01:17;;;;;;;10.52;6.70;;;26.10;1.00;;;;;;5033149;28;20036;-58
2022/08/27 07:03:43;;;;;;;6.68;5.97;;;26.10;1.00;;;;;;5041107;28;20041;-59
2022/08/27 07:06:11;;;;;;;5.78;5.28;;;26.10;1.00;;;;;;5025355;28;20376;-58
2022/08/27 07:08:38;;;;;;;5.57;4.63;;;26.10;1.00;;;;;;5039921;28;20479;-58
2022/08/27 07:11:04;;;;;;;6.82;5.53;;;26.10;1.00;;;;;;5037570;28;20037;-57
2022/08/27 07:13:30;;;;;;;5.80;4.32;;;26.10;1.00;;;;;;5038937;28;20429;-58
2022/08/27 07:15:56;;;;;;;4.82;4.28;;;26.00;1.00;;;;;;5037517;28;20468;-58
2022/08/27 07:18:22;;;;;;;6.07;4.60;;;26.00;1.00;;;;;;5031138;28;20032;-58
2022/08/27 07:30:54;;;;;;;4.25;3.38;;;26.10;1.00;;;;;;5026094;28;20083;-58
2022/08/27 07:33:20;;;;;;;3.83;3.50;;;26.10;1.00;;;;;;5033506;28;20049;-58
2022/08/27 07:35:48;;;;;;;3.97;2.90;;;26.10;1.00;;;;;;5032701;28;20052;-57
2022/08/27 07:38:14;;;;;;;4.03;3.33;;;26.10;1.00;;;;;;5030894;28;20018;-58
2022/08/27 07:40:40;;;;;;;7.32;3.28;;;26.20;1.00;;;;;;5032549;28;20041;-59
2022/08/27 07:45:54;;;;;;;4.80;2.83;;;26.20;1.00;;;;;;5044594;28;20044;-58
2022/08/27 07:48:24;;;;;;;3.28;2.92;;;26.20;1.00;;;;;;5033606;28;20041;-58
2022/08/27 07:50:51;;;;;;;2.97;2.67;;;26.20;1.00;;;;;;5032556;28;20660;-58
2022/08/27 07:57:19;;;;;;;2.72;2.53;;;26.30;1.00;;;;;;5016008;28;20400;-58
2022/08/27 07:59:47;;;;;;;3.45;2.60;;;26.30;1.00;;;;;;5020120;28;20447;-58
2022/08/27 08:02:14;;;;;;;3.63;3.17;;;26.30;1.00;;;;;;5032958;28;20024;-58
2022/08/27 08:04:41;;;;;;;3.25;2.53;;;26.40;1.00;;;;;;5032752;28;20045;-58
2022/08/27 08:07:08;;;;;;;3.22;2.92;;;26.40;1.00;;;;;;5033361;28;20116;-58
2022/08/27 08:09:34;;;;;;;5.90;3.50;;;26.40;1.00;;;;;;5032795;28;20029;-58
2022/08/27 08:11:59;;;;;;;3.00;2.80;;;26.50;1.00;;;;;;5032109;28;20087;-58
2022/08/27 08:14:25;;;;;;;3.00;2.70;;;26.50;1.00;;;;;;5032613;28;20087;-58
2022/08/27 08:16:52;;;;;;;5.78;3.10;;;26.30;1.00;;;;;;5033619;28;20026;-58
2022/08/27 08:19:17;;;;;;;3.55;2.85;;;26.30;1.00;;;;;;5039343;28;20107;-59
2022/08/27 08:21:43;;;;;;;5.13;3.03;;;26.40;1.00;;;;;;5031519;28;20033;-58
2022/08/27 08:24:08;;;;;;;3.17;2.95;;;26.50;1.00;;;;;;5032317;28;20066;-58
2022/08/27 08:26:40;;;;;;;3.53;2.50;;;26.50;1.00;;;;;;5029658;28;20021;-58
2022/08/27 08:29:06;;;;;;;5.78;3.38;;;26.30;1.00;;;;;;5030934;28;20028;-58
2022/08/27 08:31:31;;;;;;;7.78;2.35;;;26.30;1.00;;;;;;5034102;28;20033;-59
2022/08/27 08:33:57;;;;;;;3.28;2.67;;;26.40;1.00;;;;;;5036378;28;20036;-58
2022/08/27 08:36:23;;;;;;;3.53;2.63;;;26.30;1.00;;;;;;5038205;28;20044;-59
2022/08/27 08:38:49;;;;;;;3.90;2.35;;;26.20;1.00;;;;;;5029444;28;20103;-59
2022/08/27 08:41:27;;;;;;;3.38;2.70;;;26.10;1.00;;;;;;5031258;28;20527;-58
2022/08/27 08:44:13;;;;;;;4.55;2.40;;;26.10;1.00;;;;;;5032014;28;20029;-59
2022/08/27 08:46:48;;;;;;;3.90;2.20;;;26.20;1.00;;;;;;5030945;28;20026;-58
2022/08/27 08:49:25;;;;;;;2.50;2.30;;;26.30;1.00;;;;;;5032084;28;20029;-58
2022/08/27 08:51:53;;;;;;;2.97;2.50;;;26.30;1.00;;;;;;5031127;28;20036;-59
2022/08/27 08:54:22;;;;;;;2.38;2.17;;;26.30;1.00;;;;;;5031843;28;20033;-56
2022/08/27 08:57:15;;;;;;;4.30;2.00;;;26.30;1.00;;;;;;5027391;28;20048;-58
2022/08/27 08:59:49;;;;;;;3.55;2.28;;;26.30;1.00;;;;;;5023149;28;20033;-58
2022/08/27 09:02:15;;;;;;;2.85;2.17;;;26.30;1.00;;;;;;5029216;28;20113;-58
2022/08/27 09:04:43;;;;;;;3.00;1.95;;;26.40;1.00;;;;;;5030567;28;20112;-58
2022/08/27 09:07:21;;;;;;;3.20;2.10;;;26.50;1.00;;;;;;5030570;28;20024;-58
2022/08/27 09:10:22;;;;;;;3.63;2.33;;;26.50;1.00;;;;;;5032074;28;20113;-58
2022/08/27 09:12:51;;;;;;;2.22;2.03;;;26.60;1.00;;;;;;5024462;28;20039;-59
2022/08/27 09:15:35;;;;;;;5.80;2.28;;;26.50;1.00;;;;;;5045702;28;20103;-58
2022/08/27 09:18:06;;;;;;;2.00;1.80;;;26.60;1.00;;;;;;5027254;28;20033;-58
2022/08/27 09:20:33;;;;;;;3.38;2.10;;;26.70;1.00;;;;;;5036006;28;20468;-59
2022/08/27 09:23:03;;;;;;;2.95;1.75;;;26.80;1.00;;;;;;5019354;28;20402;-58
2022/08/27 09:25:35;;;;;;;5.07;1.92;;;26.80;1.00;;;;;;5031579;28;20033;-58
2022/08/27 09:31:12;;;;;;;3.47;1.95;;;26.80;1.00;;;;;;5032959;28;20053;-58
2022/08/27 09:33:38;;;;;;;4.75;2.00;;;26.80;1.00;;;;;;5031159;28;20128;-59
2022/08/27 09:36:10;;;;;;;2.47;1.55;;;26.90;1.00;;;;;;5035431;28;20053;-58
2022/08/27 09:38:38;;;;;;;2.22;1.55;;;26.90;1.00;;;;;;5039439;28;20102;-58
2022/08/27 09:41:15;;;;;;;2.42;1.40;;;26.90;1.00;;;;;;5034166;28;20450;-58
2022/08/27 09:43:42;;;;;;;3.25;1.70;;;27.00;1.00;;;;;;5036851;28;20045;-59
2022/08/27 09:46:20;;;;;;;2.08;1.65;;;27.00;1.00;;;;;;5035360;28;20018;-59
2022/08/27 09:48:46;;;;;;;1.85;1.45;;;27.10;1.00;;;;;;5036144;28;20087;-57
2022/08/27 09:51:16;;;;;;;3.15;1.90;;;27.20;1.00;;;;;;5035155;28;20056;-58
2022/08/27 09:54:09;;;;;;;2.10;1.90;;;27.30;1.00;;;;;;5033643;28;20033;-58
2022/08/27 09:56:40;;;;;;;3.55;1.92;;;27.30;1.00;;;;;;5035266;28;20104;-58
2022/08/27 09:59:08;;;;;;;2.17;1.70;;;27.40;1.00;;;;;;5038693;28;20025;-58
2022/08/27 10:01:59;;;;;;;3.75;1.60;;;27.40;1.00;;;;;;5033637;28;20026;-58
2022/08/27 10:04:38;;;;;;;1.90;1.60;;;27.40;1.00;;;;;;5028836;28;20073;-59
2022/08/27 10:07:34;;;;;;;1.55;1.45;;;27.40;1.00;;;;;;5033009;28;20029;-58
2022/08/27 10:10:04;;;;;;;1.60;1.50;;;27.50;1.00;;;;;;5028840;28;20073;-59
2022/08/27 10:12:32;;;;;;;1.60;1.50;;;27.60;1.00;;;;;;5037895;28;20106;-59
2022/08/27 10:15:42;;;;;;;2.15;1.80;;;27.50;1.00;;;;;;5037721;28;20514;-58
2022/08/27 10:18:23;;;;;;;1.92;1.40;;;27.60;1.00;;;;;;5029913;28;20432;-58
2022/08/27 10:21:06;;;;;;;2.20;1.85;;;27.70;1.00;;;;;;5034985;28;20048;-58
2022/08/27 10:23:49;;;;;;;1.88;1.60;;;27.70;1.00;;;;;;5033594;28;20037;-58
2022/08/27 10:26:27;;;;;;;1.98;1.70;;;27.80;1.00;;;;;;5030727;28;20034;-58
2022/08/27 10:29:06;;;;;;;1.80;1.70;;;28.00;1.00;;;;;;5033544;28;20022;-58
2022/08/27 10:31:35;;;;;;;2.95;2.08;;;28.00;1.00;;;;;;5033654;28;20029;-58
2022/08/27 10:34:19;;;;;;;1.75;1.65;;;28.10;1.00;;;;;;5046354;28;20037;-58
2022/08/27 10:37:15;;;;;;;3.20;1.75;;;28.20;1.00;;;;;;5033303;28;20037;-58
2022/08/27 10:39:50;;;;;;;1.60;1.38;;;28.20;1.00;;;;;;5040997;28;20033;-58
2022/08/27 10:42:21;;;;;;;3.13;2.00;;;28.30;1.00;;;;;;5032847;28;20026;-59
2022/08/27 10:44:59;;;;;;;3.10;2.80;;;28.40;1.00;;;;;;5043149;28;20033;-58
2022/08/27 10:47:27;;;;;;;2.45;2.25;;;28.50;1.00;;;;;;5033363;28;20033;-58
2022/08/27 10:50:27;;;;;;;3.65;1.90;;;28.50;1.00;;;;;;5034227;28;20029;-58
2022/08/27 10:53:09;;;;;;;2.20;2.08;;;28.50;1.00;;;;;;5032517;28;20041;-58
2022/08/27 10:55:41;;;;;;;2.67;1.63;;;28.50;1.00;;;;;;5033414;28;20460;-56
2022/08/27 10:58:31;;;;;;;3.28;1.80;;;28.50;1.00;;;;;;5034174;28;20029;-58
2022/08/27 11:01:04;;;;;;;1.70;1.60;;;28.60;1.00;;;;;;5034116;28;20400;-58
2022/08/27 11:03:58;;;;;;;2.08;1.30;;;28.70;1.00;;;;;;5035979;28;20041;-58
2022/08/27 11:06:31;;;;;;;1.65;1.55;;;28.70;1.00;;;;;;5022517;28;20026;-58
2022/08/27 11:09:00;;;;;;;;;;;28.70;1.00;;;;;;5033541;28;20022;-58
2022/08/27 11:11:35;;;;;;;2.15;1.80;;;28.60;1.00;;;;;;5034099;28;19916;-58
2022/08/27 11:14:06;;;;;;;1.88;1.52;;;28.80;1.00;;;;;;5035034;28;20025;-58
2022/08/27 11:16:40;;;;;;;1.33;1.33;;;28.90;1.00;;;;;;5030056;28;20036;-58
2022/08/27 11:19:11;;;;;;;;;;;29.00;1.00;;;;;;5034138;28;20037;-59
2022/08/27 11:21:52;;;;;;;2.58;2.38;;;29.00;1.00;;;;;;5027164;28;20379;-58
2022/08/27 11:24:58;;;;;;;1.92;1.65;;;29.10;1.00;;;;;;5032095;28;20359;-58
2022/08/27 11:27:27;;;;;;;1.80;1.70;;;29.20;1.00;;;;;;5034069;28;20075;-59
2022/08/27 11:30:07;;;;;;;2.00;1.90;;;29.10;1.00;;;;;;5033523;28;20495;-58
2022/08/27 11:33:07;;;;;;;2.63;1.65;;;29.20;1.00;;;;;;5032514;28;20103;-58
2022/08/27 11:35:55;;;;;;;2.22;1.85;;;29.40;1.00;;;;;;5032627;28;20490;-58
2022/08/27 11:38:56;;;;;;;2.22;2.03;;;29.40;1.00;;;;;;5033376;28;20033;-57
2022/08/27 11:41:40;;;;;;;1.63;1.52;;;29.40;1.00;;;;;;5029941;28;20083;-58
2022/08/27 11:44:07;;;;;;;2.40;1.50;;;29.40;1.00;;;;;;5033248;28;20033;-58
2022/08/27 11:46:49;;;;;;;2.22;1.60;;;29.60;1.00;;;;;;5032204;28;20048;-58
2022/08/27 11:49:34;;;;;;;1.80;1.70;;;29.70;1.00;;;;;;5033217;28;20029;-58
2022/08/27 11:52:06;;;;;;;2.17;1.70;;;29.90;1.00;;;;;;5032268;28;20025;-58
2022/08/27 11:54:47;;;;;;;2.72;1.67;;;29.90;1.00;;;;;;5032636;28;20112;-58
2022/08/27 11:57:35;;;;;;;1.60;1.60;;;29.90;1.00;;;;;;5032165;28;20022;-58
2022/08/27 12:00:25;;;;;;;3.33;1.75;;;30.10;1.00;;;;;;5032027;28;20041;-58
2022/08/27 12:03:03;;;;;;;2.05;1.55;;;30.30;1.00;;;;;;5032411;28;20041;-58
2022/08/27 12:05:38;;;;;;;1.92;1.77;;;30.40;1.00;;;;;;5032819;28;20080;-59
2022/08/27 12:08:21;;;;;;;1.80;1.70;;;30.70;1.00;;;;;;5035913;28;20026;-59
2022/08/27 12:11:08;;;;;;;2.10;1.75;;;31.70;1.00;;;;;;5019659;28;20471;-58
2022/08/27 12:13:40;;;;;;;1.63;1.52;;;32.90;1.00;;;;;;5028174;28;20037;-59
2022/08/27 12:16:34;;;;;;;2.80;1.73;;;34.80;1.00;;;;;;5032639;28;20026;-59
2022/08/27 12:19:24;;;;;;;2.20;2.10;;;37.10;1.00;;;;;;5034702;28;20173;-59
2022/08/27 12:21:55;;;;;;;2.45;1.88;;;38.30;1.00;;;;;;5025945;28;20026;-59
2022/08/27 12:24:50;;;;;;;3.45;2.22;;;40.60;1.00;;;;;;5018303;28;20117;-59
2022/08/27 12:27:54;;;;;;;2.97;2.47;;;39.70;1.00;;;;;;5032566;28;20035;-58
2022/08/27 12:30:28;;;;;;;2.17;2.08;;;40.50;1.00;;;;;;5029342;28;20037;-59
2022/08/27 12:32:56;;;;;;;2.47;2.38;;;39.90;1.00;;;;;;5027901;28;20076;-59
2022/08/27 12:35:46;;;;;;;2.88;2.78;;;38.10;1.00;;;;;;5032590;28;20075;-59
2022/08/27 12:38:35;;;;;;;3.55;3.25;;;38.00;1.00;;;;;;5030029;28;20032;-59
2022/08/27 12:41:07;;;;;;;3.50;3.30;;;37.20;1.00;;;;;;5031763;28;20037;-59
2022/08/27 12:43:36;;;;;;;3.58;3.25;;;37.10;1.00;;;;;;5022697;28;20179;-59
2022/08/27 12:46:03;;;;;;;3.75;3.20;;;37.00;1.00;;;;;;5031524;28;20084;-58
2022/08/27 12:48:38;;;;;;;3.55;3.30;;;36.90;1.00;;;;;;5057651;28;20030;-59
2022/08/27 12:51:11;;;;;;;4.32;3.90;;;37.50;1.00;;;;;;5030498;28;20031;-58
2022/08/27 12:53:41;;;;;;;;;;;38.30;1.00;;;;;;5031781;28;20080;-59
2022/08/27 12:56:25;;;;;;;3.92;3.67;;;41.00;1.00;;;;;;5030951;28;19905;-58
2022/08/27 12:59:08;;;;;;;3.70;3.60;;;42.50;1.00;;;;;;5031832;28;20038;-59
2022/08/27 13:01:46;;;;;;;3.97;3.58;;;44.20;1.00;;;;;;5033645;28;20032;-58
2022/08/27 13:04:23;;;;;;;3.90;3.70;;;43.90;1.00;;;;;;5031870;28;20107;-59
2022/08/27 13:06:49;;;;;;;3.97;3.67;;;44.80;1.00;;;;;;5033666;28;20032;-59
2022/08/27 13:09:34;;;;;;;3.90;3.70;;;45.00;1.00;;;;;;5031738;28;20029;-59
2022/08/27 13:12:03;;;;;;;4.07;3.88;;;46.40;1.00;;;;;;5031031;28;20060;-59
2022/08/27 13:14:39;;;;;;;4.15;3.95;;;47.20;99.90;;;;;;5031717;28;20120;-59
2022/08/27 13:17:14;;;;;;;4.28;4.00;;;47.80;99.90;;;;;;5036662;28;20035;-58
2022/08/27 13:19:56;;;;;;;4.45;4.18;;;46.80;99.90;;;;;;5017911;28;20028;-59
2022/08/27 13:22:25;;;;;;;3.92;3.83;;;46.40;99.90;;;;;;5037989;28;20068;-59
2022/08/27 13:24:53;;;;;;;8.18;4.68;;;44.80;1.00;;;;;;5031551;28;20037;-59
2022/08/27 13:27:29;;;;;;;4.13;3.97;;;43.60;1.00;;;;;;5029397;28;20064;-58
2022/08/27 13:30:01;;;;;;;4.10;3.75;;;41.60;1.00;;;;;;5018426;28;20026;-58
2022/08/27 13:32:28;;;;;;;3.78;3.67;;;44.40;1.00;;;;;;5037981;28;20049;-58
2022/08/27 13:34:54;;;;;;;4.05;3.85;;;45.50;1.00;;;;;;5044522;28;20463;-58
2022/08/27 13:37:33;;;;;;;3.92;3.70;;;46.60;1.00;;;;;;5030815;28;20075;-58
2022/08/27 13:39:58;;;;;;;3.80;3.50;;;46.70;99.90;;;;;;5031666;28;20037;-58
2022/08/27 13:42:25;;;;;;;3.90;3.58;;;47.00;1.00;;;;;;5036647;28;20025;-58
2022/08/27 13:44:55;;;;;;;4.13;3.90;;;46.90;1.00;;;;;;5031614;28;20041;-59
2022/08/27 13:47:24;;;;;;;4.18;3.88;;;47.30;99.90;;;;;;5030571;28;20017;-58
2022/08/27 13:49:50;;;;;;;4.55;4.20;;;45.80;1.00;;;;;;5031413;28;20040;-58
2022/08/27 13:54:11;;;;;;;4.60;4.22;;;44.90;1.00;;;;;;5036926;28;20439;-59
2022/08/27 13:55:22;;;;;;;4.63;4.25;;;42.90;1.00;;;;;;5030481;28;20056;-58
2022/08/27 13:57:50;;;;;;;4.93;4.50;;;41.30;1.00;;;;;;5037626;28;20025;-58
2022/08/27 14:00:32;;;;;;;4.90;4.50;;;40.40;1.00;;;;;;5029019;28;20032;-58